sensor_id;sensor_type;location;lat;lon;timestamp;temperature;humidity
30399;DHT22;17195;50.838;7.214;2023-07-24T00:00:20;18.00;99.90
30399;DHT22;17195;50.838;7.214;2023-07-24T00:02:46;18.00;99.90
30399;DHT22;17195;50.838;7.214;2023-07-24T00:05:12;18.00;99.90
30399;DHT22;17195;50.838;7.214;2023-07-24T00:07:37;18.00;99.90
30399;DHT22;17195;50.838;7.214;2023-07-24T00:10:04;18.00;99.90
30399;DHT22;17195;50.838;7.214;2023-07-24T00:12:29;17.90;99.90
30399;DHT22;17195;50.838;7.214;2023-07-24T00:14:55;17.90;99.90
30399;DHT22;17195;50.838;7.214;2023-07-24T00:17:20;17.90;99.90
30399;DHT22;17195;50.838;7.214;2023-07-24T00:19:46;17.90;99.90
30399;DHT22;17195;50.838;7.214;2023-07-24T00:22:12;17.90;99.90
30399;DHT22;17195;50.838;7.214;2023-07-24T00:24:37;17.90;99.90
30399;DHT22;17195;50.838;7.214;2023-07-24T00:27:03;17.90;99.90
30399;DHT22;17195;50.838;7.214;2023-07-24T00:29:29;17.90;99.90
30399;DHT22;17195;50.838;7.214;2023-07-24T00:31:54;17.90;99.90
30399;DHT22;17195;50.838;7.214;2023-07-24T00:34:20;17.90;99.90
30399;DHT22;17195;50.838;7.214;2023-07-24T00:36:45;17.90;99.90
30399;DHT22;17195;50.838;7.214;2023-07-24T00:39:13;17.80;99.90
30399;DHT22;17195;50.838;7.214;2023-07-24T00:41:39;18.00;99.90
30399;DHT22;17195;50.838;7.214;2023-07-24T00:44:04;17.90;99.90
30399;DHT22;17195;50.838;7.214;2023-07-24T00:46:30;17.90;99.90
30399;DHT22;17195;50.838;7.214;2023-07-24T00:48:58;17.90;99.90
30399;DHT22;17195;50.838;7.214;2023-07-24T00:51:26;17.80;99.90
30399;DHT22;17195;50.838;7.214;2023-07-24T00:53:57;17.90;99.90
30399;DHT22;17195;50.838;7.214;2023-07-24T00:56:25;17.90;99.90
30399;DHT22;17195;50.838;7.214;2023-07-24T00:58:52;17.90;99.90
30399;DHT22;17195;50.838;7.214;2023-07-24T01:01:17;17.90;99.90
30399;DHT22;17195;50.838;7.214;2023-07-24T01:03:44;17.90;99.90
30399;DHT22;17195;50.838;7.214;2023-07-24T01:06:09;17.90;99.90
30399;DHT22;17195;50.838;7.214;2023-07-24T01:08:36;17.90;99.90
30399;DHT22;17195;50.838;7.214;2023-07-24T01:11:37;17.90;99.90
30399;DHT22;17195;50.838;7.214;2023-07-24T01:14:42;17.90;99.90
30399;DHT22;17195;50.838;7.214;2023-07-24T01:17:00;17.80;99.90
30399;DHT22;17195;50.838;7.214;2023-07-24T01:19:41;17.80;99.90
30399;DHT22;17195;50.838;7.214;2023-07-24T01:25:23;17.70;99.90
30399;DHT22;17195;50.838;7.214;2023-07-24T01:27:52;17.70;99.90
30399;DHT22;17195;50.838;7.214;2023-07-24T01:30:18;17.70;99.90
30399;DHT22;17195;50.838;7.214;2023-07-24T01:32:44;17.70;99.90
30399;DHT22;17195;50.838;7.214;2023-07-24T01:35:10;17.80;99.90
30399;DHT22;17195;50.838;7.214;2023-07-24T01:37:37;17.80;99.90
30399;DHT22;17195;50.838;7.214;2023-07-24T01:40:09;17.80;99.90
30399;DHT22;17195;50.838;7.214;2023-07-24T01:42:35;17.70;99.90
30399;DHT22;17195;50.838;7.214;2023-07-24T01:45:03;17.70;99.90
30399;DHT22;17195;50.838;7.214;2023-07-24T01:47:29;17.70;99.90
30399;DHT22;17195;50.838;7.214;2023-07-24T01:49:55;17.80;99.90
30399;DHT22;17195;50.838;7.214;2023-07-24T01:52:21;17.70;99.90
30399;DHT22;17195;50.838;7.214;2023-07-24T01:54:46;17.70;99.90
30399;DHT22;17195;50.838;7.214;2023-07-24T01:57:12;17.70;99.90
30399;DHT22;17195;50.838;7.214;2023-07-24T01:59:37;17.70;99.90
30399;DHT22;17195;50.838;7.214;2023-07-24T02:02:03;17.70;99.90
30399;DHT22;17195;50.838;7.214;2023-07-24T02:04:29;17.70;99.90
30399;DHT22;17195;50.838;7.214;2023-07-24T02:06:54;17.70;99.90
30399;DHT22;17195;50.838;7.214;2023-07-24T02:09:20;17.80;99.90
30399;DHT22;17195;50.838;7.214;2023-07-24T02:11:46;17.80;99.90
30399;DHT22;17195;50.838;7.214;2023-07-24T02:14:12;17.80;99.90
30399;DHT22;17195;50.838;7.214;2023-07-24T02:16:38;17.80;99.90
30399;DHT22;17195;50.838;7.214;2023-07-24T02:19:04;17.80;99.90
30399;DHT22;17195;50.838;7.214;2023-07-24T02:21:30;17.80;99.90
30399;DHT22;17195;50.838;7.214;2023-07-24T02:23:55;17.90;99.90
30399;DHT22;17195;50.838;7.214;2023-07-24T02:26:21;17.90;99.90
30399;DHT22;17195;50.838;7.214;2023-07-24T02:28:46;17.90;99.90
30399;DHT22;17195;50.838;7.214;2023-07-24T02:31:13;17.90;99.90
30399;DHT22;17195;50.838;7.214;2023-07-24T02:33:38;18.00;99.90
30399;DHT22;17195;50.838;7.214;2023-07-24T02:36:04;18.00;99.90
30399;DHT22;17195;50.838;7.214;2023-07-24T02:38:30;18.00;99.90
30399;DHT22;17195;50.838;7.214;2023-07-24T02:40:55;18.10;99.90
30399;DHT22;17195;50.838;7.214;2023-07-24T02:43:21;18.00;99.90
30399;DHT22;17195;50.838;7.214;2023-07-24T02:45:46;18.00;99.90
30399;DHT22;17195;50.838;7.214;2023-07-24T02:48:12;18.00;99.90
30399;DHT22;17195;50.838;7.214;2023-07-24T02:50:37;18.00;99.90
30399;DHT22;17195;50.838;7.214;2023-07-24T02:53:03;17.90;99.90
30399;DHT22;17195;50.838;7.214;2023-07-24T02:55:29;17.90;99.90
30399;DHT22;17195;50.838;7.214;2023-07-24T02:57:55;17.90;99.90
30399;DHT22;17195;50.838;7.214;2023-07-24T03:00:21;17.90;99.90
30399;DHT22;17195;50.838;7.214;2023-07-24T03:02:46;17.90;99.90
30399;DHT22;17195;50.838;7.214;2023-07-24T03:05:12;17.90;99.90
30399;DHT22;17195;50.838;7.214;2023-07-24T03:07:37;17.90;99.90
30399;DHT22;17195;50.838;7.214;2023-07-24T03:10:03;17.90;99.90
30399;DHT22;17195;50.838;7.214;2023-07-24T03:12:29;17.90;99.90
30399;DHT22;17195;50.838;7.214;2023-07-24T03:14:54;17.80;99.90
30399;DHT22;17195;50.838;7.214;2023-07-24T03:17:20;17.80;99.90
30399;DHT22;17195;50.838;7.214;2023-07-24T03:19:48;17.80;99.90
30399;DHT22;17195;50.838;7.214;2023-07-24T03:22:13;17.70;99.90
30399;DHT22;17195;50.838;7.214;2023-07-24T03:24:39;17.60;99.90
30399;DHT22;17195;50.838;7.214;2023-07-24T03:27:04;17.60;99.90
30399;DHT22;17195;50.838;7.214;2023-07-24T03:29:30;17.60;99.90
30399;DHT22;17195;50.838;7.214;2023-07-24T03:31:56;17.50;99.90
30399;DHT22;17195;50.838;7.214;2023-07-24T03:34:21;17.50;99.90
30399;DHT22;17195;50.838;7.214;2023-07-24T03:36:47;17.40;99.90
30399;DHT22;17195;50.838;7.214;2023-07-24T03:39:12;17.40;99.90
30399;DHT22;17195;50.838;7.214;2023-07-24T03:41:38;17.30;99.90
30399;DHT22;17195;50.838;7.214;2023-07-24T03:44:04;17.30;99.90
30399;DHT22;17195;50.838;7.214;2023-07-24T03:46:32;17.20;99.90
30399;DHT22;17195;50.838;7.214;2023-07-24T03:48:57;17.20;99.90
30399;DHT22;17195;50.838;7.214;2023-07-24T03:51:23;17.20;99.90
30399;DHT22;17195;50.838;7.214;2023-07-24T03:53:48;17.20;99.90
30399;DHT22;17195;50.838;7.214;2023-07-24T03:56:14;17.20;99.90
30399;DHT22;17195;50.838;7.214;2023-07-24T03:58:39;17.20;99.90
30399;DHT22;17195;50.838;7.214;2023-07-24T04:01:06;17.20;99.90
30399;DHT22;17195;50.838;7.214;2023-07-24T04:03:31;17.20;99.90
30399;DHT22;17195;50.838;7.214;2023-07-24T04:05:57;17.20;99.90
30399;DHT22;17195;50.838;7.214;2023-07-24T04:08:23;17.30;99.90
30399;DHT22;17195;50.838;7.214;2023-07-24T04:10:48;17.30;99.90
30399;DHT22;17195;50.838;7.214;2023-07-24T04:13:14;17.30;99.90
30399;DHT22;17195;50.838;7.214;2023-07-24T04:15:39;17.30;99.90
30399;DHT22;17195;50.838;7.214;2023-07-24T04:18:05;17.30;99.90
30399;DHT22;17195;50.838;7.214;2023-07-24T04:20:31;17.40;99.90
30399;DHT22;17195;50.838;7.214;2023-07-24T04:22:56;17.40;99.90
30399;DHT22;17195;50.838;7.214;2023-07-24T04:25:22;17.50;99.90
30399;DHT22;17195;50.838;7.214;2023-07-24T04:27:47;17.50;99.90
30399;DHT22;17195;50.838;7.214;2023-07-24T04:30:13;17.50;99.90
30399;DHT22;17195;50.838;7.214;2023-07-24T04:32:38;17.60;99.90
30399;DHT22;17195;50.838;7.214;2023-07-24T04:35:04;17.60;99.90
30399;DHT22;17195;50.838;7.214;2023-07-24T04:37:30;17.70;99.90
30399;DHT22;17195;50.838;7.214;2023-07-24T04:39:56;17.70;99.90
30399;DHT22;17195;50.838;7.214;2023-07-24T04:42:21;17.70;99.90
30399;DHT22;17195;50.838;7.214;2023-07-24T04:44:47;17.70;99.90
30399;DHT22;17195;50.838;7.214;2023-07-24T04:47:12;17.70;99.90
30399;DHT22;17195;50.838;7.214;2023-07-24T04:49:38;17.80;99.90
30399;DHT22;17195;50.838;7.214;2023-07-24T04:52:04;17.90;99.90
30399;DHT22;17195;50.838;7.214;2023-07-24T04:54:29;17.90;99.90
30399;DHT22;17195;50.838;7.214;2023-07-24T04:56:55;18.00;99.90
30399;DHT22;17195;50.838;7.214;2023-07-24T04:59:20;18.00;99.90
30399;DHT22;17195;50.838;7.214;2023-07-24T05:01:46;18.10;99.90
30399;DHT22;17195;50.838;7.214;2023-07-24T05:04:11;18.20;99.90
30399;DHT22;17195;50.838;7.214;2023-07-24T05:06:37;18.20;99.90
30399;DHT22;17195;50.838;7.214;2023-07-24T05:09:04;18.30;99.90
30399;DHT22;17195;50.838;7.214;2023-07-24T05:11:29;18.30;99.90
30399;DHT22;17195;50.838;7.214;2023-07-24T05:13:55;18.30;99.90
30399;DHT22;17195;50.838;7.214;2023-07-24T05:16:20;18.30;99.90
30399;DHT22;17195;50.838;7.214;2023-07-24T05:18:46;18.30;99.90
30399;DHT22;17195;50.838;7.214;2023-07-24T05:21:11;18.30;99.90
30399;DHT22;17195;50.838;7.214;2023-07-24T05:23:37;18.40;99.90
30399;DHT22;17195;50.838;7.214;2023-07-24T05:26:03;18.50;99.90
30399;DHT22;17195;50.838;7.214;2023-07-24T05:28:30;18.70;99.90
30399;DHT22;17195;50.838;7.214;2023-07-24T05:30:59;18.80;99.90
30399;DHT22;17195;50.838;7.214;2023-07-24T05:33:25;18.90;99.90
30399;DHT22;17195;50.838;7.214;2023-07-24T05:35:50;19.10;99.90
30399;DHT22;17195;50.838;7.214;2023-07-24T05:38:16;19.20;99.90
30399;DHT22;17195;50.838;7.214;2023-07-24T05:40:42;19.30;99.90
30399;DHT22;17195;50.838;7.214;2023-07-24T05:43:07;19.40;99.90
30399;DHT22;17195;50.838;7.214;2023-07-24T05:45:33;19.50;99.90
30399;DHT22;17195;50.838;7.214;2023-07-24T05:47:58;19.60;99.90
30399;DHT22;17195;50.838;7.214;2023-07-24T05:50:24;19.70;99.90
30399;DHT22;17195;50.838;7.214;2023-07-24T05:52:49;19.80;99.90
30399;DHT22;17195;50.838;7.214;2023-07-24T05:55:15;19.80;99.90
30399;DHT22;17195;50.838;7.214;2023-07-24T05:57:40;19.90;99.90
30399;DHT22;17195;50.838;7.214;2023-07-24T06:00:06;19.90;99.90
30399;DHT22;17195;50.838;7.214;2023-07-24T06:02:32;20.00;99.90
30399;DHT22;17195;50.838;7.214;2023-07-24T06:04:58;20.20;99.90
30399;DHT22;17195;50.838;7.214;2023-07-24T06:07:24;20.20;99.90
30399;DHT22;17195;50.838;7.214;2023-07-24T06:09:49;20.20;99.90
30399;DHT22;17195;50.838;7.214;2023-07-24T06:12:15;20.30;99.90
30399;DHT22;17195;50.838;7.214;2023-07-24T06:14:41;20.30;99.90
30399;DHT22;17195;50.838;7.214;2023-07-24T06:17:06;20.30;99.90
30399;DHT22;17195;50.838;7.214;2023-07-24T06:19:32;20.40;99.90
30399;DHT22;17195;50.838;7.214;2023-07-24T06:21:57;20.40;99.90
30399;DHT22;17195;50.838;7.214;2023-07-24T06:24:23;20.50;99.90
30399;DHT22;17195;50.838;7.214;2023-07-24T06:26:52;20.60;99.90
30399;DHT22;17195;50.838;7.214;2023-07-24T06:29:17;20.70;99.90
30399;DHT22;17195;50.838;7.214;2023-07-24T06:31:43;20.80;99.90
30399;DHT22;17195;50.838;7.214;2023-07-24T06:34:09;21.00;99.90
30399;DHT22;17195;50.838;7.214;2023-07-24T06:36:34;21.00;99.90
30399;DHT22;17195;50.838;7.214;2023-07-24T06:39:00;21.00;99.90
30399;DHT22;17195;50.838;7.214;2023-07-24T06:41:25;21.00;99.90
30399;DHT22;17195;50.838;7.214;2023-07-24T06:43:53;21.00;99.90
30399;DHT22;17195;50.838;7.214;2023-07-24T06:46:19;21.00;99.90
30399;DHT22;17195;50.838;7.214;2023-07-24T06:48:44;20.90;99.90
30399;DHT22;17195;50.838;7.214;2023-07-24T06:51:10;20.80;99.90
30399;DHT22;17195;50.838;7.214;2023-07-24T06:53:35;20.70;99.90
30399;DHT22;17195;50.838;7.214;2023-07-24T06:56:01;20.70;99.90
30399;DHT22;17195;50.838;7.214;2023-07-24T06:58:27;20.70;99.90
30399;DHT22;17195;50.838;7.214;2023-07-24T07:00:52;20.70;99.90
30399;DHT22;17195;50.838;7.214;2023-07-24T07:03:18;20.80;99.90
30399;DHT22;17195;50.838;7.214;2023-07-24T07:05:43;20.80;99.90
30399;DHT22;17195;50.838;7.214;2023-07-24T07:08:09;20.90;99.90
30399;DHT22;17195;50.838;7.214;2023-07-24T07:10:35;21.00;99.90
30399;DHT22;17195;50.838;7.214;2023-07-24T07:13:00;21.00;99.90
30399;DHT22;17195;50.838;7.214;2023-07-24T07:15:26;21.10;99.90
30399;DHT22;17195;50.838;7.214;2023-07-24T07:17:51;21.10;99.90
30399;DHT22;17195;50.838;7.214;2023-07-24T07:20:17;21.30;99.90
30399;DHT22;17195;50.838;7.214;2023-07-24T07:22:42;21.30;99.90
30399;DHT22;17195;50.838;7.214;2023-07-24T07:25:08;21.50;99.90
30399;DHT22;17195;50.838;7.214;2023-07-24T07:27:34;21.70;99.90
30399;DHT22;17195;50.838;7.214;2023-07-24T07:29:59;21.70;99.90
30399;DHT22;17195;50.838;7.214;2023-07-24T07:32:25;21.80;99.90
30399;DHT22;17195;50.838;7.214;2023-07-24T07:34:52;21.80;99.90
30399;DHT22;17195;50.838;7.214;2023-07-24T07:37:18;21.90;99.90
30399;DHT22;17195;50.838;7.214;2023-07-24T07:39:43;21.90;99.90
30399;DHT22;17195;50.838;7.214;2023-07-24T07:42:09;21.80;99.90
30399;DHT22;17195;50.838;7.214;2023-07-24T07:44:34;21.80;99.90
30399;DHT22;17195;50.838;7.214;2023-07-24T07:47:00;21.80;99.90
30399;DHT22;17195;50.838;7.214;2023-07-24T07:49:25;21.80;99.90
30399;DHT22;17195;50.838;7.214;2023-07-24T07:51:51;21.70;99.90
30399;DHT22;17195;50.838;7.214;2023-07-24T07:54:16;21.70;99.90
30399;DHT22;17195;50.838;7.214;2023-07-24T07:56:42;21.70;99.90
30399;DHT22;17195;50.838;7.214;2023-07-24T07:59:08;21.60;99.90
30399;DHT22;17195;50.838;7.214;2023-07-24T08:01:33;21.50;99.90
30399;DHT22;17195;50.838;7.214;2023-07-24T08:04:01;21.50;99.90
30399;DHT22;17195;50.838;7.214;2023-07-24T08:06:26;21.60;99.90
30399;DHT22;17195;50.838;7.214;2023-07-24T08:08:52;21.80;99.90
30399;DHT22;17195;50.838;7.214;2023-07-24T08:11:17;22.00;99.90
30399;DHT22;17195;50.838;7.214;2023-07-24T08:13:43;22.20;99.90
30399;DHT22;17195;50.838;7.214;2023-07-24T08:16:15;22.50;99.90
30399;DHT22;17195;50.838;7.214;2023-07-24T08:18:46;22.80;99.90
30399;DHT22;17195;50.838;7.214;2023-07-24T08:21:13;22.90;99.90
30399;DHT22;17195;50.838;7.214;2023-07-24T08:23:39;23.10;99.90
30399;DHT22;17195;50.838;7.214;2023-07-24T08:26:05;23.10;99.90
30399;DHT22;17195;50.838;7.214;2023-07-24T08:28:31;23.00;99.90
30399;DHT22;17195;50.838;7.214;2023-07-24T08:30:58;23.00;99.90
30399;DHT22;17195;50.838;7.214;2023-07-24T08:33:24;23.00;99.90
30399;DHT22;17195;50.838;7.214;2023-07-24T08:36:03;23.00;99.90
30399;DHT22;17195;50.838;7.214;2023-07-24T08:38:29;23.20;99.90
30399;DHT22;17195;50.838;7.214;2023-07-24T08:41:05;23.20;99.90
30399;DHT22;17195;50.838;7.214;2023-07-24T08:43:31;23.20;99.90
30399;DHT22;17195;50.838;7.214;2023-07-24T08:45:58;23.30;99.90
30399;DHT22;17195;50.838;7.214;2023-07-24T08:48:26;23.40;99.90
30399;DHT22;17195;50.838;7.214;2023-07-24T08:50:54;23.50;99.90
30399;DHT22;17195;50.838;7.214;2023-07-24T08:53:21;23.60;99.90
30399;DHT22;17195;50.838;7.214;2023-07-24T08:55:48;23.70;99.90
30399;DHT22;17195;50.838;7.214;2023-07-24T08:58:15;23.80;99.90
30399;DHT22;17195;50.838;7.214;2023-07-24T09:00:40;24.10;99.90
30399;DHT22;17195;50.838;7.214;2023-07-24T09:03:06;24.30;99.90
30399;DHT22;17195;50.838;7.214;2023-07-24T09:05:31;24.30;99.90
30399;DHT22;17195;50.838;7.214;2023-07-24T09:07:57;24.40;99.90
30399;DHT22;17195;50.838;7.214;2023-07-24T09:10:26;24.50;99.90
30399;DHT22;17195;50.838;7.214;2023-07-24T09:12:52;24.60;99.90
30399;DHT22;17195;50.838;7.214;2023-07-24T09:15:18;24.40;99.90
30399;DHT22;17195;50.838;7.214;2023-07-24T09:17:50;24.30;99.90
30399;DHT22;17195;50.838;7.214;2023-07-24T09:20:17;24.20;99.90
30399;DHT22;17195;50.838;7.214;2023-07-24T09:22:53;24.00;99.90
30399;DHT22;17195;50.838;7.214;2023-07-24T09:25:19;23.70;99.90
30399;DHT22;17195;50.838;7.214;2023-07-24T09:27:54;25.10;99.90
30399;DHT22;17195;50.838;7.214;2023-07-24T09:30:20;23.60;99.90
30399;DHT22;17195;50.838;7.214;2023-07-24T09:32:55;23.60;99.90
30399;DHT22;17195;50.838;7.214;2023-07-24T09:35:21;23.60;99.90
30399;DHT22;17195;50.838;7.214;2023-07-24T09:38:08;23.70;99.90
30399;DHT22;17195;50.838;7.214;2023-07-24T09:40:42;23.70;99.90
30399;DHT22;17195;50.838;7.214;2023-07-24T09:43:34;23.90;99.90
30399;DHT22;17195;50.838;7.214;2023-07-24T09:46:05;23.90;99.90
30399;DHT22;17195;50.838;7.214;2023-07-24T09:48:32;23.80;99.90
30399;DHT22;17195;50.838;7.214;2023-07-24T09:50:59;23.70;99.90
30399;DHT22;17195;50.838;7.214;2023-07-24T09:53:43;23.60;99.90
30399;DHT22;17195;50.838;7.214;2023-07-24T09:56:14;23.50;99.90
30399;DHT22;17195;50.838;7.214;2023-07-24T09:58:40;23.40;99.90
30399;DHT22;17195;50.838;7.214;2023-07-24T10:01:08;23.40;99.90
30399;DHT22;17195;50.838;7.214;2023-07-24T10:03:38;23.30;99.90
30399;DHT22;17195;50.838;7.214;2023-07-24T10:06:04;23.40;99.90
30399;DHT22;17195;50.838;7.214;2023-07-24T10:08:30;23.50;99.90
30399;DHT22;17195;50.838;7.214;2023-07-24T10:10:58;23.80;99.90
30399;DHT22;17195;50.838;7.214;2023-07-24T10:13:26;24.20;99.90
30399;DHT22;17195;50.838;7.214;2023-07-24T10:15:52;24.50;99.90
30399;DHT22;17195;50.838;7.214;2023-07-24T10:18:28;24.50;99.90
30399;DHT22;17195;50.838;7.214;2023-07-24T10:21:06;24.60;99.90
30399;DHT22;17195;50.838;7.214;2023-07-24T10:23:42;24.50;99.90
30399;DHT22;17195;50.838;7.214;2023-07-24T10:26:08;24.80;99.90
30399;DHT22;17195;50.838;7.214;2023-07-24T10:28:36;24.80;99.90
30399;DHT22;17195;50.838;7.214;2023-07-24T10:31:23;25.00;99.90
30399;DHT22;17195;50.838;7.214;2023-07-24T10:33:49;25.20;99.90
30399;DHT22;17195;50.838;7.214;2023-07-24T10:36:20;25.20;99.90
30399;DHT22;17195;50.838;7.214;2023-07-24T10:38:55;25.30;99.90
30399;DHT22;17195;50.838;7.214;2023-07-24T10:41:20;25.20;99.90
30399;DHT22;17195;50.838;7.214;2023-07-24T10:43:52;25.30;99.90
30399;DHT22;17195;50.838;7.214;2023-07-24T10:46:36;25.20;99.90
30399;DHT22;17195;50.838;7.214;2023-07-24T10:49:02;25.60;99.90
30399;DHT22;17195;50.838;7.214;2023-07-24T10:51:29;25.80;99.90
30399;DHT22;17195;50.838;7.214;2023-07-24T10:53:55;25.60;99.90
30399;DHT22;17195;50.838;7.214;2023-07-24T10:56:20;25.50;99.90
30399;DHT22;17195;50.838;7.214;2023-07-24T10:58:46;25.60;99.90
30399;DHT22;17195;50.838;7.214;2023-07-24T11:01:11;25.60;99.90
30399;DHT22;17195;50.838;7.214;2023-07-24T11:03:39;25.60;99.90
30399;DHT22;17195;50.838;7.214;2023-07-24T11:06:18;25.50;99.90
30399;DHT22;17195;50.838;7.214;2023-07-24T11:08:55;25.20;99.90
30399;DHT22;17195;50.838;7.214;2023-07-24T11:11:31;24.90;99.90
30399;DHT22;17195;50.838;7.214;2023-07-24T11:13:57;24.90;99.90
30399;DHT22;17195;50.838;7.214;2023-07-24T11:16:23;25.40;99.90
30399;DHT22;17195;50.838;7.214;2023-07-24T11:18:50;25.70;99.90
30399;DHT22;17195;50.838;7.214;2023-07-24T11:21:18;25.90;99.90
30399;DHT22;17195;50.838;7.214;2023-07-24T11:23:51;26.10;99.90
30399;DHT22;17195;50.838;7.214;2023-07-24T11:26:21;26.40;99.90
30399;DHT22;17195;50.838;7.214;2023-07-24T11:28:48;26.50;99.90
30399;DHT22;17195;50.838;7.214;2023-07-24T11:31:13;26.40;99.90
30399;DHT22;17195;50.838;7.214;2023-07-24T11:33:40;26.30;99.90
30399;DHT22;17195;50.838;7.214;2023-07-24T11:36:07;26.20;99.90
30399;DHT22;17195;50.838;7.214;2023-07-24T11:38:33;26.10;99.90
30399;DHT22;17195;50.838;7.214;2023-07-24T11:40:58;26.10;99.90
30399;DHT22;17195;50.838;7.214;2023-07-24T11:43:24;26.30;99.90
30399;DHT22;17195;50.838;7.214;2023-07-24T11:45:52;26.40;99.90
30399;DHT22;17195;50.838;7.214;2023-07-24T11:48:19;26.50;99.90
30399;DHT22;17195;50.838;7.214;2023-07-24T11:50:47;26.50;99.90
30399;DHT22;17195;50.838;7.214;2023-07-24T11:53:20;26.40;99.90
30399;DHT22;17195;50.838;7.214;2023-07-24T11:55:47;26.30;99.90
30399;DHT22;17195;50.838;7.214;2023-07-24T11:58:15;26.10;99.90
30399;DHT22;17195;50.838;7.214;2023-07-24T12:00:41;25.90;99.90
30399;DHT22;17195;50.838;7.214;2023-07-24T12:03:07;25.60;99.90
30399;DHT22;17195;50.838;7.214;2023-07-24T12:05:43;25.40;99.90
30399;DHT22;17195;50.838;7.214;2023-07-24T12:08:09;25.10;99.90
30399;DHT22;17195;50.838;7.214;2023-07-24T12:10:39;25.00;99.90
30399;DHT22;17195;50.838;7.214;2023-07-24T12:13:05;25.10;99.90
30399;DHT22;17195;50.838;7.214;2023-07-24T12:15:31;25.10;99.90
30399;DHT22;17195;50.838;7.214;2023-07-24T12:17:59;25.10;99.90
30399;DHT22;17195;50.838;7.214;2023-07-24T12:20:26;24.90;99.90
30399;DHT22;17195;50.838;7.214;2023-07-24T12:22:51;24.70;99.90
30399;DHT22;17195;50.838;7.214;2023-07-24T12:25:17;24.40;99.90
30399;DHT22;17195;50.838;7.214;2023-07-24T12:27:43;24.30;99.90
30399;DHT22;17195;50.838;7.214;2023-07-24T12:30:08;24.20;99.90
30399;DHT22;17195;50.838;7.214;2023-07-24T12:32:35;23.80;99.90
30399;DHT22;17195;50.838;7.214;2023-07-24T12:35:01;23.40;99.90
30399;DHT22;17195;50.838;7.214;2023-07-24T12:37:26;22.90;99.90
30399;DHT22;17195;50.838;7.214;2023-07-24T12:39:52;22.50;99.90
30399;DHT22;17195;50.838;7.214;2023-07-24T12:42:17;22.30;99.90
30399;DHT22;17195;50.838;7.214;2023-07-24T12:44:43;22.40;99.90
30399;DHT22;17195;50.838;7.214;2023-07-24T12:47:10;22.50;99.90
30399;DHT22;17195;50.838;7.214;2023-07-24T12:49:36;22.40;99.90
30399;DHT22;17195;50.838;7.214;2023-07-24T12:52:02;22.30;99.90
30399;DHT22;17195;50.838;7.214;2023-07-24T12:54:28;22.40;99.90
30399;DHT22;17195;50.838;7.214;2023-07-24T12:56:53;22.50;99.90
30399;DHT22;17195;50.838;7.214;2023-07-24T12:59:19;22.70;99.90
30399;DHT22;17195;50.838;7.214;2023-07-24T13:01:45;22.60;99.90
30399;DHT22;17195;50.838;7.214;2023-07-24T13:04:11;22.90;99.90
30399;DHT22;17195;50.838;7.214;2023-07-24T13:06:37;23.20;99.90
30399;DHT22;17195;50.838;7.214;2023-07-24T13:09:02;23.70;99.90
30399;DHT22;17195;50.838;7.214;2023-07-24T13:11:29;24.20;99.90
30399;DHT22;17195;50.838;7.214;2023-07-24T13:13:55;24.20;99.90
30399;DHT22;17195;50.838;7.214;2023-07-24T13:16:21;23.70;99.90
30399;DHT22;17195;50.838;7.214;2023-07-24T13:18:47;23.60;99.90
30399;DHT22;17195;50.838;7.214;2023-07-24T13:21:12;23.40;99.90
30399;DHT22;17195;50.838;7.214;2023-07-24T13:23:42;23.20;99.90
30399;DHT22;17195;50.838;7.214;2023-07-24T13:26:08;22.80;99.90
30399;DHT22;17195;50.838;7.214;2023-07-24T13:28:41;22.90;99.90
30399;DHT22;17195;50.838;7.214;2023-07-24T13:31:12;22.90;99.90
30399;DHT22;17195;50.838;7.214;2023-07-24T13:33:38;23.10;99.90
30399;DHT22;17195;50.838;7.214;2023-07-24T13:36:04;23.50;99.90
30399;DHT22;17195;50.838;7.214;2023-07-24T13:38:29;23.80;99.90
30399;DHT22;17195;50.838;7.214;2023-07-24T13:40:55;24.00;99.90
30399;DHT22;17195;50.838;7.214;2023-07-24T13:43:20;24.20;99.90
30399;DHT22;17195;50.838;7.214;2023-07-24T13:45:46;24.40;99.90
30399;DHT22;17195;50.838;7.214;2023-07-24T13:48:12;24.50;99.90
30399;DHT22;17195;50.838;7.214;2023-07-24T13:50:37;24.40;99.90
30399;DHT22;17195;50.838;7.214;2023-07-24T13:53:03;24.40;99.90
30399;DHT22;17195;50.838;7.214;2023-07-24T13:55:28;24.30;99.90
30399;DHT22;17195;50.838;7.214;2023-07-24T13:57:54;23.80;99.90
30399;DHT22;17195;50.838;7.214;2023-07-24T14:00:19;23.50;99.90
30399;DHT22;17195;50.838;7.214;2023-07-24T14:02:45;23.40;99.90
30399;DHT22;17195;50.838;7.214;2023-07-24T14:05:11;23.30;99.90
30399;DHT22;17195;50.838;7.214;2023-07-24T14:07:36;23.20;99.90
30399;DHT22;17195;50.838;7.214;2023-07-24T14:10:02;23.10;99.90
30399;DHT22;17195;50.838;7.214;2023-07-24T14:12:27;22.80;99.90
30399;DHT22;17195;50.838;7.214;2023-07-24T14:14:53;22.80;99.90
30399;DHT22;17195;50.838;7.214;2023-07-24T14:17:18;22.70;99.90
30399;DHT22;17195;50.838;7.214;2023-07-24T14:19:44;22.70;99.90
30399;DHT22;17195;50.838;7.214;2023-07-24T14:22:10;22.40;99.90
30399;DHT22;17195;50.838;7.214;2023-07-24T14:24:35;22.40;99.90
30399;DHT22;17195;50.838;7.214;2023-07-24T14:27:01;22.20;99.90
30399;DHT22;17195;50.838;7.214;2023-07-24T14:29:27;21.80;99.90
30399;DHT22;17195;50.838;7.214;2023-07-24T14:31:52;20.90;99.90
30399;DHT22;17195;50.838;7.214;2023-07-24T14:34:18;20.30;99.90
30399;DHT22;17195;50.838;7.214;2023-07-24T14:36:43;20.00;99.90
30399;DHT22;17195;50.838;7.214;2023-07-24T14:39:09;19.90;99.90
30399;DHT22;17195;50.838;7.214;2023-07-24T14:41:35;20.00;99.90
30399;DHT22;17195;50.838;7.214;2023-07-24T14:44:00;20.40;99.90
30399;DHT22;17195;50.838;7.214;2023-07-24T14:46:26;21.00;99.90
30399;DHT22;17195;50.838;7.214;2023-07-24T14:48:51;21.60;99.90
30399;DHT22;17195;50.838;7.214;2023-07-24T14:51:17;21.80;99.90
30399;DHT22;17195;50.838;7.214;2023-07-24T14:53:42;22.30;99.90
30399;DHT22;17195;50.838;7.214;2023-07-24T14:56:08;22.80;99.90
30399;DHT22;17195;50.838;7.214;2023-07-24T14:58:33;23.10;99.90
30399;DHT22;17195;50.838;7.214;2023-07-24T15:00:59;23.40;99.90
30399;DHT22;17195;50.838;7.214;2023-07-24T15:03:25;23.80;99.90
30399;DHT22;17195;50.838;7.214;2023-07-24T15:05:50;24.30;99.90
30399;DHT22;17195;50.838;7.214;2023-07-24T15:08:17;24.80;99.90
30399;DHT22;17195;50.838;7.214;2023-07-24T15:10:43;25.00;99.90
30399;DHT22;17195;50.838;7.214;2023-07-24T15:13:12;25.10;99.90
30399;DHT22;17195;50.838;7.214;2023-07-24T15:15:38;25.00;99.90
30399;DHT22;17195;50.838;7.214;2023-07-24T15:18:03;24.60;99.90
30399;DHT22;17195;50.838;7.214;2023-07-24T15:20:29;23.80;99.90
30399;DHT22;17195;50.838;7.214;2023-07-24T15:22:54;23.30;99.90
30399;DHT22;17195;50.838;7.214;2023-07-24T15:25:20;23.10;99.90
30399;DHT22;17195;50.838;7.214;2023-07-24T15:27:46;23.00;99.90
30399;DHT22;17195;50.838;7.214;2023-07-24T15:30:12;22.80;99.90